sensor_id;sensor_type;location;lat;lon;timestamp;temperature;humidity
14397;DHT22;50653;0.000;0.000;2022-07-06T00:01:39;20.80;75.90
14397;DHT22;50653;0.000;0.000;2022-07-06T00:04:05;20.90;76.60
14397;DHT22;50653;0.000;0.000;2022-07-06T00:06:31;21.00;76.30
14397;DHT22;50653;0.000;0.000;2022-07-06T00:08:57;20.70;76.60
14397;DHT22;50653;0.000;0.000;2022-07-06T00:11:23;20.80;76.70
14397;DHT22;50653;0.000;0.000;2022-07-06T00:13:49;20.90;76.60
14397;DHT22;50653;0.000;0.000;2022-07-06T00:16:16;21.00;76.20
14397;DHT22;50653;0.000;0.000;2022-07-06T00:18:41;20.90;75.70
14397;DHT22;50653;0.000;0.000;2022-07-06T00:21:07;20.80;76.30
14397;DHT22;50653;0.000;0.000;2022-07-06T00:23:33;21.00;76.50
14397;DHT22;50653;0.000;0.000;2022-07-06T00:25:59;21.10;75.90
14397;DHT22;50653;0.000;0.000;2022-07-06T00:28:24;20.90;74.50
14397;DHT22;50653;0.000;0.000;2022-07-06T00:30:50;20.90;75.60
14397;DHT22;50653;0.000;0.000;2022-07-06T00:33:16;20.80;75.20
14397;DHT22;50653;0.000;0.000;2022-07-06T00:35:41;20.80;74.80
14397;DHT22;50653;0.000;0.000;2022-07-06T00:38:07;20.70;75.10
14397;DHT22;50653;0.000;0.000;2022-07-06T00:40:33;20.60;76.10
14397;DHT22;50653;0.000;0.000;2022-07-06T00:42:59;20.60;76.70
14397;DHT22;50653;0.000;0.000;2022-07-06T00:45:24;20.80;76.50
14397;DHT22;50653;0.000;0.000;2022-07-06T00:47:50;21.00;75.60
14397;DHT22;50653;0.000;0.000;2022-07-06T00:50:17;20.70;75.20
14397;DHT22;50653;0.000;0.000;2022-07-06T00:52:48;20.60;76.10
14397;DHT22;50653;0.000;0.000;2022-07-06T00:55:16;20.70;77.00
14397;DHT22;50653;0.000;0.000;2022-07-06T00:57:42;20.90;75.80
14397;DHT22;50653;0.000;0.000;2022-07-06T01:00:10;20.90;75.70
14397;DHT22;50653;0.000;0.000;2022-07-06T01:02:36;20.70;75.90
14397;DHT22;50653;0.000;0.000;2022-07-06T01:05:07;20.60;75.90
14397;DHT22;50653;0.000;0.000;2022-07-06T01:07:34;20.80;76.10
14397;DHT22;50653;0.000;0.000;2022-07-06T01:10:02;20.90;76.20
14397;DHT22;50653;0.000;0.000;2022-07-06T01:12:28;21.00;75.40
14397;DHT22;50653;0.000;0.000;2022-07-06T01:14:54;21.10;75.40
14397;DHT22;50653;0.000;0.000;2022-07-06T01:17:20;21.10;75.20
14397;DHT22;50653;0.000;0.000;2022-07-06T01:19:46;21.00;75.30
14397;DHT22;50653;0.000;0.000;2022-07-06T01:22:12;20.90;75.10
14397;DHT22;50653;0.000;0.000;2022-07-06T01:24:38;20.60;75.90
14397;DHT22;50653;0.000;0.000;2022-07-06T01:27:04;20.50;77.70
14397;DHT22;50653;0.000;0.000;2022-07-06T01:29:34;20.60;77.60
14397;DHT22;50653;0.000;0.000;2022-07-06T01:32:00;20.40;77.70
14397;DHT22;50653;0.000;0.000;2022-07-06T01:34:26;20.30;78.90
14397;DHT22;50653;0.000;0.000;2022-07-06T01:36:51;20.50;78.90
14397;DHT22;50653;0.000;0.000;2022-07-06T01:39:18;20.50;79.00
14397;DHT22;50653;0.000;0.000;2022-07-06T01:41:44;20.40;79.30
14397;DHT22;50653;0.000;0.000;2022-07-06T01:44:10;20.10;80.20
14397;DHT22;50653;0.000;0.000;2022-07-06T01:46:37;20.10;81.00
14397;DHT22;50653;0.000;0.000;2022-07-06T01:49:04;20.20;81.30
14397;DHT22;50653;0.000;0.000;2022-07-06T01:51:30;20.50;80.90
14397;DHT22;50653;0.000;0.000;2022-07-06T01:53:57;20.40;80.80
14397;DHT22;50653;0.000;0.000;2022-07-06T01:56:24;20.60;81.00
14397;DHT22;50653;0.000;0.000;2022-07-06T01:58:53;20.60;81.10
14397;DHT22;50653;0.000;0.000;2022-07-06T02:01:20;20.50;81.70
14397;DHT22;50653;0.000;0.000;2022-07-06T02:03:46;20.70;80.90
14397;DHT22;50653;0.000;0.000;2022-07-06T02:06:12;20.60;81.60
14397;DHT22;50653;0.000;0.000;2022-07-06T02:08:40;20.30;83.00
14397;DHT22;50653;0.000;0.000;2022-07-06T02:11:06;20.00;84.40
14397;DHT22;50653;0.000;0.000;2022-07-06T02:13:35;19.80;86.40
14397;DHT22;50653;0.000;0.000;2022-07-06T02:16:02;19.90;86.90
14397;DHT22;50653;0.000;0.000;2022-07-06T02:18:28;19.90;86.20
14397;DHT22;50653;0.000;0.000;2022-07-06T02:20:56;20.20;86.40
14397;DHT22;50653;0.000;0.000;2022-07-06T02:23:22;20.10;86.10
14397;DHT22;50653;0.000;0.000;2022-07-06T02:25:48;20.00;86.70
14397;DHT22;50653;0.000;0.000;2022-07-06T02:28:15;19.70;88.60
14397;DHT22;50653;0.000;0.000;2022-07-06T02:30:41;19.90;89.20
14397;DHT22;50653;0.000;0.000;2022-07-06T02:33:06;19.80;89.10
14397;DHT22;50653;0.000;0.000;2022-07-06T02:35:33;19.80;89.90
14397;DHT22;50653;0.000;0.000;2022-07-06T02:37:59;19.90;89.60
14397;DHT22;50653;0.000;0.000;2022-07-06T02:40:25;19.90;89.50
14397;DHT22;50653;0.000;0.000;2022-07-06T02:42:51;19.80;90.30
14397;DHT22;50653;0.000;0.000;2022-07-06T02:45:17;19.70;90.40
14397;DHT22;50653;0.000;0.000;2022-07-06T02:47:43;19.70;90.20
14397;DHT22;50653;0.000;0.000;2022-07-06T02:50:09;19.80;90.00
14397;DHT22;50653;0.000;0.000;2022-07-06T02:52:35;19.60;90.40
14397;DHT22;50653;0.000;0.000;2022-07-06T02:55:01;19.90;90.20
14397;DHT22;50653;0.000;0.000;2022-07-06T02:57:27;20.10;89.10
14397;DHT22;50653;0.000;0.000;2022-07-06T02:59:53;20.10;88.90
14397;DHT22;50653;0.000;0.000;2022-07-06T03:02:19;20.00;89.10
14397;DHT22;50653;0.000;0.000;2022-07-06T03:04:46;19.80;89.90
14397;DHT22;50653;0.000;0.000;2022-07-06T03:07:12;19.70;90.00
14397;DHT22;50653;0.000;0.000;2022-07-06T03:09:38;19.80;90.00
14397;DHT22;50653;0.000;0.000;2022-07-06T03:12:04;19.80;89.60
14397;DHT22;50653;0.000;0.000;2022-07-06T03:14:31;20.10;89.00
14397;DHT22;50653;0.000;0.000;2022-07-06T03:16:57;20.10;89.30
14397;DHT22;50653;0.000;0.000;2022-07-06T03:19:23;20.20;88.40
14397;DHT22;50653;0.000;0.000;2022-07-06T03:21:49;20.30;88.00
14397;DHT22;50653;0.000;0.000;2022-07-06T03:24:15;20.30;87.40
14397;DHT22;50653;0.000;0.000;2022-07-06T03:26:40;20.10;87.90
14397;DHT22;50653;0.000;0.000;2022-07-06T03:29:06;20.30;88.10
14397;DHT22;50653;0.000;0.000;2022-07-06T03:31:32;20.10;88.30
14397;DHT22;50653;0.000;0.000;2022-07-06T03:33:59;20.20;87.90
14397;DHT22;50653;0.000;0.000;2022-07-06T03:36:25;20.10;89.20
14397;DHT22;50653;0.000;0.000;2022-07-06T03:38:51;19.70;89.80
14397;DHT22;50653;0.000;0.000;2022-07-06T03:41:17;19.70;90.40
14397;DHT22;50653;0.000;0.000;2022-07-06T03:43:43;19.70;90.60
14397;DHT22;50653;0.000;0.000;2022-07-06T03:46:11;19.60;90.80
14397;DHT22;50653;0.000;0.000;2022-07-06T03:48:38;19.70;90.80
14397;DHT22;50653;0.000;0.000;2022-07-06T03:51:05;19.60;91.20
14397;DHT22;50653;0.000;0.000;2022-07-06T03:53:32;19.50;91.30
14397;DHT22;50653;0.000;0.000;2022-07-06T03:55:57;19.40;91.50
14397;DHT22;50653;0.000;0.000;2022-07-06T03:58:42;19.40;91.60
14397;DHT22;50653;0.000;0.000;2022-07-06T04:01:08;19.60;91.20
14397;DHT22;50653;0.000;0.000;2022-07-06T04:03:33;19.60;91.60
14397;DHT22;50653;0.000;0.000;2022-07-06T04:05:59;19.50;91.10
14397;DHT22;50653;0.000;0.000;2022-07-06T04:08:25;19.70;91.10
14397;DHT22;50653;0.000;0.000;2022-07-06T04:10:55;19.80;91.10
14397;DHT22;50653;0.000;0.000;2022-07-06T04:13:21;19.80;90.80
14397;DHT22;50653;0.000;0.000;2022-07-06T04:15:47;19.90;90.60
14397;DHT22;50653;0.000;0.000;2022-07-06T04:18:13;19.90;90.80
14397;DHT22;50653;0.000;0.000;2022-07-06T04:20:46;20.00;90.70
14397;DHT22;50653;0.000;0.000;2022-07-06T04:23:12;20.00;90.70
14397;DHT22;50653;0.000;0.000;2022-07-06T04:25:39;19.90;90.60
14397;DHT22;50653;0.000;0.000;2022-07-06T04:28:04;20.10;90.50
14397;DHT22;50653;0.000;0.000;2022-07-06T04:30:32;20.20;90.20
14397;DHT22;50653;0.000;0.000;2022-07-06T04:32:58;20.30;89.80
14397;DHT22;50653;0.000;0.000;2022-07-06T04:35:27;20.20;90.00
14397;DHT22;50653;0.000;0.000;2022-07-06T04:37:54;20.00;90.20
14397;DHT22;50653;0.000;0.000;2022-07-06T04:40:20;19.90;90.80
14397;DHT22;50653;0.000;0.000;2022-07-06T04:42:49;19.80;91.10
14397;DHT22;50653;0.000;0.000;2022-07-06T04:45:16;19.90;91.00
14397;DHT22;50653;0.000;0.000;2022-07-06T04:47:41;20.10;91.10
14397;DHT22;50653;0.000;0.000;2022-07-06T04:50:10;20.10;90.90
14397;DHT22;50653;0.000;0.000;2022-07-06T04:52:36;20.00;90.80
14397;DHT22;50653;0.000;0.000;2022-07-06T04:55:02;19.90;90.90
14397;DHT22;50653;0.000;0.000;2022-07-06T04:57:30;19.90;90.80
14397;DHT22;50653;0.000;0.000;2022-07-06T04:59:57;19.90;90.80
14397;DHT22;50653;0.000;0.000;2022-07-06T05:02:23;20.00;90.80
14397;DHT22;50653;0.000;0.000;2022-07-06T05:04:50;20.10;90.70
14397;DHT22;50653;0.000;0.000;2022-07-06T05:07:15;20.10;90.70
14397;DHT22;50653;0.000;0.000;2022-07-06T05:09:41;20.20;90.80
14397;DHT22;50653;0.000;0.000;2022-07-06T05:12:08;20.20;90.60
14397;DHT22;50653;0.000;0.000;2022-07-06T05:14:33;20.10;90.50
14397;DHT22;50653;0.000;0.000;2022-07-06T05:16:59;20.10;90.50
14397;DHT22;50653;0.000;0.000;2022-07-06T05:19:25;20.20;90.70
14397;DHT22;50653;0.000;0.000;2022-07-06T05:21:52;20.10;90.80
14397;DHT22;50653;0.000;0.000;2022-07-06T05:24:18;20.10;91.10
14397;DHT22;50653;0.000;0.000;2022-07-06T05:26:44;20.10;90.80
14397;DHT22;50653;0.000;0.000;2022-07-06T05:29:10;20.20;90.80
14397;DHT22;50653;0.000;0.000;2022-07-06T05:31:37;20.10;90.80
14397;DHT22;50653;0.000;0.000;2022-07-06T05:34:03;20.30;90.90
14397;DHT22;50653;0.000;0.000;2022-07-06T05:36:28;20.30;90.70
14397;DHT22;50653;0.000;0.000;2022-07-06T05:38:54;20.40;90.60
14397;DHT22;50653;0.000;0.000;2022-07-06T05:41:20;20.30;90.60
14397;DHT22;50653;0.000;0.000;2022-07-06T05:43:46;20.40;90.60
14397;DHT22;50653;0.000;0.000;2022-07-06T05:46:12;20.40;90.40
14397;DHT22;50653;0.000;0.000;2022-07-06T05:48:38;20.40;90.60
14397;DHT22;50653;0.000;0.000;2022-07-06T05:51:24;20.40;90.50
14397;DHT22;50653;0.000;0.000;2022-07-06T05:53:51;20.30;90.80
14397;DHT22;50653;0.000;0.000;2022-07-06T05:56:18;20.40;90.70
14397;DHT22;50653;0.000;0.000;2022-07-06T05:58:45;20.50;90.50
14397;DHT22;50653;0.000;0.000;2022-07-06T06:01:10;20.40;90.30
14397;DHT22;50653;0.000;0.000;2022-07-06T06:03:38;20.40;90.50
14397;DHT22;50653;0.000;0.000;2022-07-06T06:06:05;20.50;90.60
14397;DHT22;50653;0.000;0.000;2022-07-06T06:08:30;20.40;90.40
14397;DHT22;50653;0.000;0.000;2022-07-06T06:10:56;20.50;90.30
14397;DHT22;50653;0.000;0.000;2022-07-06T06:13:23;20.60;90.50
14397;DHT22;50653;0.000;0.000;2022-07-06T06:15:49;20.60;90.10
14397;DHT22;50653;0.000;0.000;2022-07-06T06:18:15;20.60;90.20
14397;DHT22;50653;0.000;0.000;2022-07-06T06:20:44;20.50;90.40
14397;DHT22;50653;0.000;0.000;2022-07-06T06:23:10;20.50;90.20
14397;DHT22;50653;0.000;0.000;2022-07-06T06:25:37;20.30;90.30
14397;DHT22;50653;0.000;0.000;2022-07-06T06:28:08;20.40;90.40
14397;DHT22;50653;0.000;0.000;2022-07-06T06:30:35;20.40;90.50
14397;DHT22;50653;0.000;0.000;2022-07-06T06:35:38;20.40;90.30
14397;DHT22;50653;0.000;0.000;2022-07-06T06:38:06;20.40;90.50
14397;DHT22;50653;0.000;0.000;2022-07-06T06:40:32;20.40;90.40
14397;DHT22;50653;0.000;0.000;2022-07-06T06:42:58;20.50;90.60
14397;DHT22;50653;0.000;0.000;2022-07-06T06:45:24;20.60;90.60
14397;DHT22;50653;0.000;0.000;2022-07-06T06:47:50;20.60;90.30
14397;DHT22;50653;0.000;0.000;2022-07-06T06:50:16;20.60;90.20
14397;DHT22;50653;0.000;0.000;2022-07-06T06:52:41;20.70;90.20
14397;DHT22;50653;0.000;0.000;2022-07-06T06:55:08;20.70;89.60
14397;DHT22;50653;0.000;0.000;2022-07-06T06:57:33;20.70;88.80
14397;DHT22;50653;0.000;0.000;2022-07-06T06:59:59;20.80;89.10
14397;DHT22;50653;0.000;0.000;2022-07-06T07:02:25;20.80;88.20
14397;DHT22;50653;0.000;0.000;2022-07-06T07:04:50;20.80;87.20
14397;DHT22;50653;0.000;0.000;2022-07-06T07:07:16;20.80;87.30
14397;DHT22;50653;0.000;0.000;2022-07-06T07:09:41;20.90;87.70
14397;DHT22;50653;0.000;0.000;2022-07-06T07:12:07;21.00;87.40
14397;DHT22;50653;0.000;0.000;2022-07-06T07:14:33;20.90;85.30
14397;DHT22;50653;0.000;0.000;2022-07-06T07:16:58;21.00;85.70
14397;DHT22;50653;0.000;0.000;2022-07-06T07:19:24;21.00;86.00
14397;DHT22;50653;0.000;0.000;2022-07-06T07:21:50;21.10;86.90
14397;DHT22;50653;0.000;0.000;2022-07-06T07:24:15;21.20;87.20
14397;DHT22;50653;0.000;0.000;2022-07-06T07:26:41;21.20;85.70
14397;DHT22;50653;0.000;0.000;2022-07-06T07:29:06;21.20;85.00
14397;DHT22;50653;0.000;0.000;2022-07-06T07:31:32;21.20;85.70
14397;DHT22;50653;0.000;0.000;2022-07-06T07:33:58;21.30;85.70
14397;DHT22;50653;0.000;0.000;2022-07-06T07:36:25;21.30;85.20
14397;DHT22;50653;0.000;0.000;2022-07-06T07:38:50;21.30;84.70
14397;DHT22;50653;0.000;0.000;2022-07-06T07:41:16;21.30;84.90
14397;DHT22;50653;0.000;0.000;2022-07-06T07:43:42;21.30;84.40
14397;DHT22;50653;0.000;0.000;2022-07-06T07:46:08;21.40;83.40
14397;DHT22;50653;0.000;0.000;2022-07-06T07:48:34;21.40;84.70
14397;DHT22;50653;0.000;0.000;2022-07-06T07:51:00;21.40;84.00
14397;DHT22;50653;0.000;0.000;2022-07-06T07:53:26;21.40;84.10
14397;DHT22;50653;0.000;0.000;2022-07-06T07:55:52;21.40;84.50
14397;DHT22;50653;0.000;0.000;2022-07-06T07:58:18;21.50;84.70
14397;DHT22;50653;0.000;0.000;2022-07-06T08:00:44;21.50;84.50
14397;DHT22;50653;0.000;0.000;2022-07-06T08:03:09;21.60;84.70
14397;DHT22;50653;0.000;0.000;2022-07-06T08:05:35;21.60;81.60
14397;DHT22;50653;0.000;0.000;2022-07-06T08:08:01;21.60;82.90
14397;DHT22;50653;0.000;0.000;2022-07-06T08:10:26;21.50;82.20
14397;DHT22;50653;0.000;0.000;2022-07-06T08:12:52;21.60;81.50
14397;DHT22;50653;0.000;0.000;2022-07-06T08:15:18;21.70;81.00
14397;DHT22;50653;0.000;0.000;2022-07-06T08:17:43;21.60;80.80
14397;DHT22;50653;0.000;0.000;2022-07-06T08:20:10;21.60;74.90
14397;DHT22;50653;0.000;0.000;2022-07-06T08:22:36;21.70;77.70
14397;DHT22;50653;0.000;0.000;2022-07-06T08:25:03;21.70;78.40
14397;DHT22;50653;0.000;0.000;2022-07-06T08:27:29;21.70;78.20
14397;DHT22;50653;0.000;0.000;2022-07-06T08:29:59;21.70;77.70
14397;DHT22;50653;0.000;0.000;2022-07-06T08:32:26;21.70;73.90
14397;DHT22;50653;0.000;0.000;2022-07-06T08:34:51;21.80;73.70
14397;DHT22;50653;0.000;0.000;2022-07-06T08:37:18;21.80;74.00
14397;DHT22;50653;0.000;0.000;2022-07-06T08:39:44;21.80;70.80
14397;DHT22;50653;0.000;0.000;2022-07-06T08:42:12;21.90;69.70
14397;DHT22;50653;0.000;0.000;2022-07-06T08:44:38;21.90;69.30
14397;DHT22;50653;0.000;0.000;2022-07-06T08:47:06;22.00;62.30
14397;DHT22;50653;0.000;0.000;2022-07-06T08:49:35;22.10;63.50
14397;DHT22;50653;0.000;0.000;2022-07-06T08:52:03;22.10;65.10
14397;DHT22;50653;0.000;0.000;2022-07-06T08:54:30;22.10;64.20
14397;DHT22;50653;0.000;0.000;2022-07-06T08:56:55;22.10;63.40
14397;DHT22;50653;0.000;0.000;2022-07-06T08:59:21;22.10;61.00
14397;DHT22;50653;0.000;0.000;2022-07-06T09:01:47;22.30;61.00
14397;DHT22;50653;0.000;0.000;2022-07-06T09:04:15;22.30;58.20
14397;DHT22;50653;0.000;0.000;2022-07-06T09:06:43;22.40;61.00
14397;DHT22;50653;0.000;0.000;2022-07-06T09:09:19;22.40;56.50
14397;DHT22;50653;0.000;0.000;2022-07-06T09:11:46;22.50;57.00
14397;DHT22;50653;0.000;0.000;2022-07-06T09:14:11;22.50;59.00
14397;DHT22;50653;0.000;0.000;2022-07-06T09:16:37;22.50;58.00
14397;DHT22;50653;0.000;0.000;2022-07-06T09:19:02;22.60;56.70
14397;DHT22;50653;0.000;0.000;2022-07-06T09:21:31;22.50;57.90
14397;DHT22;50653;0.000;0.000;2022-07-06T09:24:00;22.60;56.80
14397;DHT22;50653;0.000;0.000;2022-07-06T09:26:28;22.70;56.40
14397;DHT22;50653;0.000;0.000;2022-07-06T09:28:55;22.70;57.90
14397;DHT22;50653;0.000;0.000;2022-07-06T09:31:21;22.70;58.20
14397;DHT22;50653;0.000;0.000;2022-07-06T09:39:22;22.80;56.70
14397;DHT22;50653;0.000;0.000;2022-07-06T09:41:50;22.80;57.10
14397;DHT22;50653;0.000;0.000;2022-07-06T09:44:38;22.80;58.40
14397;DHT22;50653;0.000;0.000;2022-07-06T09:47:06;22.80;55.80
14397;DHT22;50653;0.000;0.000;2022-07-06T09:49:32;22.90;56.50
14397;DHT22;50653;0.000;0.000;2022-07-06T09:52:02;22.90;56.90
14397;DHT22;50653;0.000;0.000;2022-07-06T09:54:28;22.80;56.20
14397;DHT22;50653;0.000;0.000;2022-07-06T09:56:56;22.80;56.00
14397;DHT22;50653;0.000;0.000;2022-07-06T09:59:26;23.00;54.20
14397;DHT22;50653;0.000;0.000;2022-07-06T10:01:59;23.10;54.30
14397;DHT22;50653;0.000;0.000;2022-07-06T10:04:27;23.10;53.20
14397;DHT22;50653;0.000;0.000;2022-07-06T10:06:54;23.10;55.10
14397;DHT22;50653;0.000;0.000;2022-07-06T10:09:22;23.00;55.10
14397;DHT22;50653;0.000;0.000;2022-07-06T10:11:54;23.10;53.10
14397;DHT22;50653;0.000;0.000;2022-07-06T10:14:29;23.10;53.20
14397;DHT22;50653;0.000;0.000;2022-07-06T10:16:56;23.10;52.90
14397;DHT22;50653;0.000;0.000;2022-07-06T10:19:23;23.10;53.90
14397;DHT22;50653;0.000;0.000;2022-07-06T10:21:49;23.10;54.80
14397;DHT22;50653;0.000;0.000;2022-07-06T10:24:15;23.10;54.80
14397;DHT22;50653;0.000;0.000;2022-07-06T10:26:41;23.10;53.50
14397;DHT22;50653;0.000;0.000;2022-07-06T10:29:07;23.20;52.80
14397;DHT22;50653;0.000;0.000;2022-07-06T10:31:36;23.20;52.00
14397;DHT22;50653;0.000;0.000;2022-07-06T10:34:05;23.20;51.70
14397;DHT22;50653;0.000;0.000;2022-07-06T10:36:37;23.20;52.00
14397;DHT22;50653;0.000;0.000;2022-07-06T10:39:02;23.20;52.30
14397;DHT22;50653;0.000;0.000;2022-07-06T10:41:48;23.40;52.30
14397;DHT22;50653;0.000;0.000;2022-07-06T10:44:16;23.40;51.70
14397;DHT22;50653;0.000;0.000;2022-07-06T10:46:53;23.40;52.00
14397;DHT22;50653;0.000;0.000;2022-07-06T10:49:20;23.40;53.20
14397;DHT22;50653;0.000;0.000;2022-07-06T10:51:46;23.40;53.30
14397;DHT22;50653;0.000;0.000;2022-07-06T10:54:12;23.40;53.30
14397;DHT22;50653;0.000;0.000;2022-07-06T10:59:17;23.40;52.80
14397;DHT22;50653;0.000;0.000;2022-07-06T11:04:36;23.40;50.70
14397;DHT22;50653;0.000;0.000;2022-07-06T11:07:08;23.40;51.00
14397;DHT22;50653;0.000;0.000;2022-07-06T11:09:35;23.40;51.80
14397;DHT22;50653;0.000;0.000;2022-07-06T11:12:15;23.50;50.20
14397;DHT22;50653;0.000;0.000;2022-07-06T11:14:42;23.50;49.70
14397;DHT22;50653;0.000;0.000;2022-07-06T11:17:10;23.60;50.10
14397;DHT22;50653;0.000;0.000;2022-07-06T11:19:36;23.60;50.00
14397;DHT22;50653;0.000;0.000;2022-07-06T11:22:07;23.60;51.10
14397;DHT22;50653;0.000;0.000;2022-07-06T11:24:35;23.60;49.10
14397;DHT22;50653;0.000;0.000;2022-07-06T11:27:01;23.70;49.70
14397;DHT22;50653;0.000;0.000;2022-07-06T11:29:28;23.70;50.10
14397;DHT22;50653;0.000;0.000;2022-07-06T11:31:56;23.80;51.70
14397;DHT22;50653;0.000;0.000;2022-07-06T11:34:30;23.90;49.80
14397;DHT22;50653;0.000;0.000;2022-07-06T11:39:25;23.80;49.20
14397;DHT22;50653;0.000;0.000;2022-07-06T11:41:51;23.80;49.40
14397;DHT22;50653;0.000;0.000;2022-07-06T11:44:17;24.00;50.10
14397;DHT22;50653;0.000;0.000;2022-07-06T11:46:42;24.00;51.40
14397;DHT22;50653;0.000;0.000;2022-07-06T11:49:09;24.20;53.10
14397;DHT22;50653;0.000;0.000;2022-07-06T11:51:37;24.30;52.90
14397;DHT22;50653;0.000;0.000;2022-07-06T11:54:18;24.30;52.10
14397;DHT22;50653;0.000;0.000;2022-07-06T11:56:55;24.20;50.40
14397;DHT22;50653;0.000;0.000;2022-07-06T11:59:23;24.20;50.70
14397;DHT22;50653;0.000;0.000;2022-07-06T12:01:49;24.20;51.70
14397;DHT22;50653;0.000;0.000;2022-07-06T12:04:15;24.10;50.80
14397;DHT22;50653;0.000;0.000;2022-07-06T12:06:40;24.20;49.60
14397;DHT22;50653;0.000;0.000;2022-07-06T12:09:08;24.30;49.50
14397;DHT22;50653;0.000;0.000;2022-07-06T12:11:35;24.30;49.40
14397;DHT22;50653;0.000;0.000;2022-07-06T12:14:12;24.20;50.20
14397;DHT22;50653;0.000;0.000;2022-07-06T12:16:39;24.20;50.70
14397;DHT22;50653;0.000;0.000;2022-07-06T12:19:06;24.30;51.10
14397;DHT22;50653;0.000;0.000;2022-07-06T12:21:34;24.30;49.70
14397;DHT22;50653;0.000;0.000;2022-07-06T12:24:00;24.30;50.80
14397;DHT22;50653;0.000;0.000;2022-07-06T12:26:27;24.30;50.30
14397;DHT22;50653;0.000;0.000;2022-07-06T12:29:02;24.40;51.40
14397;DHT22;50653;0.000;0.000;2022-07-06T12:31:42;24.30;51.40
14397;DHT22;50653;0.000;0.000;2022-07-06T12:34:18;24.40;52.70
14397;DHT22;50653;0.000;0.000;2022-07-06T12:39:19;24.30;51.40
14397;DHT22;50653;0.000;0.000;2022-07-06T12:41:55;24.30;50.80
14397;DHT22;50653;0.000;0.000;2022-07-06T12:44:24;24.30;51.70
14397;DHT22;50653;0.000;0.000;2022-07-06T12:49:30;24.30;51.30
14397;DHT22;50653;0.000;0.000;2022-07-06T12:54:49;24.30;51.00
14397;DHT22;50653;0.000;0.000;2022-07-06T12:57:16;24.30;51.00
14397;DHT22;50653;0.000;0.000;2022-07-06T12:59:46;24.40;51.10
14397;DHT22;50653;0.000;0.000;2022-07-06T13:04:59;24.30;49.70
14397;DHT22;50653;0.000;0.000;2022-07-06T13:07:26;24.30;48.00
14397;DHT22;50653;0.000;0.000;2022-07-06T13:09:53;24.30;49.30
14397;DHT22;50653;0.000;0.000;2022-07-06T13:12:20;24.30;48.90
14397;DHT22;50653;0.000;0.000;2022-07-06T13:14:45;24.40;48.50
14397;DHT22;50653;0.000;0.000;2022-07-06T13:17:11;24.40;48.90
14397;DHT22;50653;0.000;0.000;2022-07-06T13:19:37;24.50;49.10
14397;DHT22;50653;0.000;0.000;2022-07-06T13:22:03;24.50;48.40
14397;DHT22;50653;0.000;0.000;2022-07-06T13:24:29;24.40;48.60
14397;DHT22;50653;0.000;0.000;2022-07-06T13:26:58;24.50;49.00
14397;DHT22;50653;0.000;0.000;2022-07-06T13:29:24;24.60;48.90
14397;DHT22;50653;0.000;0.000;2022-07-06T13:31:49;24.60;48.60
14397;DHT22;50653;0.000;0.000;2022-07-06T13:34:15;24.60;48.30
14397;DHT22;50653;0.000;0.000;2022-07-06T13:36:41;24.60;48.30
14397;DHT22;50653;0.000;0.000;2022-07-06T13:39:07;24.70;48.40
14397;DHT22;50653;0.000;0.000;2022-07-06T13:41:34;24.70;47.60
14397;DHT22;50653;0.000;0.000;2022-07-06T13:44:00;24.70;47.80
14397;DHT22;50653;0.000;0.000;2022-07-06T13:46:27;24.70;48.20
14397;DHT22;50653;0.000;0.000;2022-07-06T13:48:53;24.70;48.00
14397;DHT22;50653;0.000;0.000;2022-07-06T13:51:19;24.70;46.90
14397;DHT22;50653;0.000;0.000;2022-07-06T13:53:45;24.70;47.90
14397;DHT22;50653;0.000;0.000;2022-07-06T13:56:11;24.70;48.50
14397;DHT22;50653;0.000;0.000;2022-07-06T13:58:37;24.70;47.60
14397;DHT22;50653;0.000;0.000;2022-07-06T14:01:04;24.80;48.00
14397;DHT22;50653;0.000;0.000;2022-07-06T14:03:31;24.70;47.20
14397;DHT22;50653;0.000;0.000;2022-07-06T14:06:00;24.80;47.40
14397;DHT22;50653;0.000;0.000;2022-07-06T14:08:29;24.80;48.30
14397;DHT22;50653;0.000;0.000;2022-07-06T14:10:56;24.80;48.30
14397;DHT22;50653;0.000;0.000;2022-07-06T14:13:22;24.90;47.00
14397;DHT22;50653;0.000;0.000;2022-07-06T14:15:48;24.90;47.50
14397;DHT22;50653;0.000;0.000;2022-07-06T14:18:15;24.90;47.00
14397;DHT22;50653;0.000;0.000;2022-07-06T14:20:43;24.90;46.30
14397;DHT22;50653;0.000;0.000;2022-07-06T14:23:09;24.90;46.10
14397;DHT22;50653;0.000;0.000;2022-07-06T14:25:34;24.90;45.80
14397;DHT22;50653;0.000;0.000;2022-07-06T14:28:00;24.80;46.50
14397;DHT22;50653;0.000;0.000;2022-07-06T14:30:27;24.90;47.00
14397;DHT22;50653;0.000;0.000;2022-07-06T14:32:53;25.00;46.50
14397;DHT22;50653;0.000;0.000;2022-07-06T14:35:18;25.00;46.20
14397;DHT22;50653;0.000;0.000;2022-07-06T14:37:44;25.10;46.50
14397;DHT22;50653;0.000;0.000;2022-07-06T14:40:10;25.10;46.40
14397;DHT22;50653;0.000;0.000;2022-07-06T14:42:35;25.10;46.70
14397;DHT22;50653;0.000;0.000;2022-07-06T14:45:01;25.10;46.20
14397;DHT22;50653;0.000;0.000;2022-07-06T14:47:27;25.20;45.50
14397;DHT22;50653;0.000;0.000;2022-07-06T14:49:52;25.10;46.10
14397;DHT22;50653;0.000;0.000;2022-07-06T14:52:18;25.10;46.70
14397;DHT22;50653;0.000;0.000;2022-07-06T14:54:44;25.20;47.60
14397;DHT22;50653;0.000;0.000;2022-07-06T14:57:10;25.30;47.30
14397;DHT22;50653;0.000;0.000;2022-07-06T14:59:35;25.30;47.00
14397;DHT22;50653;0.000;0.000;2022-07-06T15:02:02;25.30;46.30
14397;DHT22;50653;0.000;0.000;2022-07-06T15:04:27;25.30;46.40
14397;DHT22;50653;0.000;0.000;2022-07-06T15:06:53;25.30;45.70
14397;DHT22;50653;0.000;0.000;2022-07-06T15:09:19;25.30;46.30
14397;DHT22;50653;0.000;0.000;2022-07-06T15:11:45;25.30;46.10
14397;DHT22;50653;0.000;0.000;2022-07-06T15:14:11;25.30;46.90
14397;DHT22;50653;0.000;0.000;2022-07-06T15:16:38;25.30;46.50
14397;DHT22;50653;0.000;0.000;2022-07-06T15:19:04;25.30;46.10
14397;DHT22;50653;0.000;0.000;2022-07-06T15:21:30;25.20;45.40
14397;DHT22;50653;0.000;0.000;2022-07-06T15:23:56;25.20;45.00
14397;DHT22;50653;0.000;0.000;2022-07-06T15:26:22;25.10;45.20
14397;DHT22;50653;0.000;0.000;2022-07-06T15:28:47;25.20;45.60
14397;DHT22;50653;0.000;0.000;2022-07-06T15:31:13;25.30;45.80
14397;DHT22;50653;0.000;0.000;2022-07-06T15:33:39;25.30;45.00
14397;DHT22;50653;0.000;0.000;2022-07-06T15:36:05;25.10;45.00
14397;DHT22;50653;0.000;0.000;2022-07-06T15:38:30;25.10;46.10
14397;DHT22;50653;0.000;0.000;2022-07-06T15:40:59;25.20;46.10
14397;DHT22;50653;0.000;0.000;2022-07-06T15:43:29;25.30;46.50
14397;DHT22;50653;0.000;0.000;2022-07-06T15:45:58;25.30;46.50
14397;DHT22;50653;0.000;0.000;2022-07-06T15:48:24;25.40;46.80
14397;DHT22;50653;0.000;0.000;2022-07-06T15:50:50;25.30;46.20
14397;DHT22;50653;0.000;0.000;2022-07-06T15:53:16;25.50;46.80
14397;DHT22;50653;0.000;0.000;2022-07-06T15:55:42;25.50;47.10
14397;DHT22;50653;0.000;0.000;2022-07-06T15:58:08;25.50;46.70
14397;DHT22;50653;0.000;0.000;2022-07-06T16:00:34;25.60;46.90
14397;DHT22;50653;0.000;0.000;2022-07-06T16:02:59;25.60;47.20
14397;DHT22;50653;0.000;0.000;2022-07-06T16:05:26;25.60;46.80
14397;DHT22;50653;0.000;0.000;2022-07-06T16:07:52;25.50;46.60
14397;DHT22;50653;0.000;0.000;2022-07-06T16:10:18;25.40;45.60